sensor_id;sensor_type;location;lat;lon;timestamp;P1;durP1;ratioP1;P2;durP2;ratioP2
35290;SDS011;21411;50.024;19.220;2023-07-13T00:01:47;7.00;;;6.30;;
35290;SDS011;21411;50.024;19.220;2023-07-13T00:04:15;7.70;;;6.90;;
35290;SDS011;21411;50.024;19.220;2023-07-13T00:06:41;7.30;;;6.20;;
35290;SDS011;21411;50.024;19.220;2023-07-13T00:09:13;6.90;;;6.30;;
35290;SDS011;21411;50.024;19.220;2023-07-13T00:11:40;6.90;;;6.40;;
35290;SDS011;21411;50.024;19.220;2023-07-13T00:14:06;7.90;;;6.90;;
35290;SDS011;21411;50.024;19.220;2023-07-13T00:16:33;7.20;;;6.60;;
35290;SDS011;21411;50.024;19.220;2023-07-13T00:18:58;7.20;;;6.20;;
35290;SDS011;21411;50.024;19.220;2023-07-13T00:21:26;6.60;;;6.00;;
35290;SDS011;21411;50.024;19.220;2023-07-13T00:23:51;4.70;;;4.20;;
35290;SDS011;21411;50.024;19.220;2023-07-13T00:26:17;4.70;;;4.20;;
35290;SDS011;21411;50.024;19.220;2023-07-13T00:28:43;6.80;;;4.40;;
35290;SDS011;21411;50.024;19.220;2023-07-13T00:31:10;4.70;;;4.30;;
35290;SDS011;21411;50.024;19.220;2023-07-13T00:33:36;5.00;;;4.60;;
35290;SDS011;21411;50.024;19.220;2023-07-13T00:36:02;5.60;;;5.00;;
35290;SDS011;21411;50.024;19.220;2023-07-13T00:38:28;4.30;;;3.90;;
35290;SDS011;21411;50.024;19.220;2023-07-13T00:40:54;5.80;;;4.30;;
35290;SDS011;21411;50.024;19.220;2023-07-13T00:43:21;4.40;;;4.00;;
35290;SDS011;21411;50.024;19.220;2023-07-13T00:48:14;4.90;;;4.20;;
35290;SDS011;21411;50.024;19.220;2023-07-13T00:50:41;4.40;;;4.00;;
35290;SDS011;21411;50.024;19.220;2023-07-13T00:53:07;5.10;;;4.60;;
35290;SDS011;21411;50.024;19.220;2023-07-13T00:55:33;6.30;;;4.80;;
35290;SDS011;21411;50.024;19.220;2023-07-13T00:57:59;5.80;;;5.40;;
35290;SDS011;21411;50.024;19.220;2023-07-13T01:00:24;6.50;;;5.90;;
35290;SDS011;21411;50.024;19.220;2023-07-13T01:02:51;6.50;;;5.90;;
35290;SDS011;21411;50.024;19.220;2023-07-13T01:05:18;7.00;;;6.00;;
35290;SDS011;21411;50.024;19.220;2023-07-13T01:07:44;6.20;;;5.50;;
35290;SDS011;21411;50.024;19.220;2023-07-13T01:10:11;6.10;;;5.50;;
35290;SDS011;21411;50.024;19.220;2023-07-13T01:12:37;8.10;;;5.70;;
35290;SDS011;21411;50.024;19.220;2023-07-13T01:15:03;6.50;;;6.00;;
35290;SDS011;21411;50.024;19.220;2023-07-13T01:17:30;5.90;;;5.50;;
35290;SDS011;21411;50.024;19.220;2023-07-13T01:19:56;7.60;;;6.40;;
35290;SDS011;21411;50.024;19.220;2023-07-13T01:22:21;6.60;;;6.00;;
35290;SDS011;21411;50.024;19.220;2023-07-13T01:24:52;6.80;;;6.20;;
35290;SDS011;21411;50.024;19.220;2023-07-13T01:27:24;8.10;;;6.60;;
35290;SDS011;21411;50.024;19.220;2023-07-13T01:29:53;7.10;;;6.10;;
35290;SDS011;21411;50.024;19.220;2023-07-13T01:32:27;7.10;;;6.40;;
35290;SDS011;21411;50.024;19.220;2023-07-13T01:34:53;7.40;;;6.40;;
35290;SDS011;21411;50.024;19.220;2023-07-13T01:37:19;7.30;;;6.60;;
35290;SDS011;21411;50.024;19.220;2023-07-13T01:39:45;6.90;;;6.30;;
35290;SDS011;21411;50.024;19.220;2023-07-13T01:42:12;7.20;;;6.50;;
35290;SDS011;21411;50.024;19.220;2023-07-13T01:44:56;7.80;;;7.00;;
35290;SDS011;21411;50.024;19.220;2023-07-13T01:47:22;7.40;;;6.70;;
35290;SDS011;21411;50.024;19.220;2023-07-13T01:49:48;7.50;;;6.80;;
35290;SDS011;21411;50.024;19.220;2023-07-13T01:52:14;11.20;;;10.30;;
35290;SDS011;21411;50.024;19.220;2023-07-13T01:54:39;15.60;;;14.50;;
35290;SDS011;21411;50.024;19.220;2023-07-13T01:57:05;12.70;;;11.60;;
35290;SDS011;21411;50.024;19.220;2023-07-13T01:59:30;10.30;;;9.40;;
35290;SDS011;21411;50.024;19.220;2023-07-13T02:01:58;9.80;;;8.90;;
35290;SDS011;21411;50.024;19.220;2023-07-13T02:04:24;8.00;;;7.10;;
35290;SDS011;21411;50.024;19.220;2023-07-13T02:06:50;8.10;;;7.10;;
35290;SDS011;21411;50.024;19.220;2023-07-13T02:09:15;8.20;;;7.10;;
35290;SDS011;21411;50.024;19.220;2023-07-13T02:11:41;7.90;;;7.20;;
35290;SDS011;21411;50.024;19.220;2023-07-13T02:14:07;7.80;;;7.10;;
35290;SDS011;21411;50.024;19.220;2023-07-13T02:16:32;8.50;;;7.10;;
35290;SDS011;21411;50.024;19.220;2023-07-13T02:18:58;7.40;;;6.70;;
35290;SDS011;21411;50.024;19.220;2023-07-13T02:21:25;8.30;;;7.50;;
35290;SDS011;21411;50.024;19.220;2023-07-13T02:23:51;7.80;;;7.00;;
35290;SDS011;21411;50.024;19.220;2023-07-13T02:26:18;8.90;;;8.00;;
35290;SDS011;21411;50.024;19.220;2023-07-13T02:28:43;9.40;;;8.60;;
35290;SDS011;21411;50.024;19.220;2023-07-13T02:31:11;8.60;;;7.70;;
35290;SDS011;21411;50.024;19.220;2023-07-13T02:33:37;10.20;;;9.40;;
35290;SDS011;21411;50.024;19.220;2023-07-13T02:36:03;10.40;;;9.00;;
35290;SDS011;21411;50.024;19.220;2023-07-13T02:38:31;9.50;;;8.60;;
35290;SDS011;21411;50.024;19.220;2023-07-13T02:40:59;9.40;;;8.50;;
35290;SDS011;21411;50.024;19.220;2023-07-13T02:43:25;9.50;;;8.50;;
35290;SDS011;21411;50.024;19.220;2023-07-13T02:45:51;10.80;;;9.80;;
35290;SDS011;21411;50.024;19.220;2023-07-13T02:48:17;9.60;;;8.80;;
35290;SDS011;21411;50.024;19.220;2023-07-13T02:50:43;9.90;;;8.80;;
35290;SDS011;21411;50.024;19.220;2023-07-13T02:53:09;9.20;;;8.40;;
35290;SDS011;21411;50.024;19.220;2023-07-13T02:55:35;11.70;;;10.60;;
35290;SDS011;21411;50.024;19.220;2023-07-13T02:58:00;10.30;;;9.40;;
35290;SDS011;21411;50.024;19.220;2023-07-13T03:00:27;10.30;;;9.40;;
35290;SDS011;21411;50.024;19.220;2023-07-13T03:02:53;13.90;;;12.60;;
35290;SDS011;21411;50.024;19.220;2023-07-13T03:05:19;12.50;;;11.30;;
35290;SDS011;21411;50.024;19.220;2023-07-13T03:07:44;12.70;;;11.50;;
35290;SDS011;21411;50.024;19.220;2023-07-13T03:10:10;12.20;;;10.50;;
35290;SDS011;21411;50.024;19.220;2023-07-13T03:12:36;11.00;;;9.90;;
35290;SDS011;21411;50.024;19.220;2023-07-13T03:15:01;11.10;;;10.10;;
35290;SDS011;21411;50.024;19.220;2023-07-13T03:17:27;11.30;;;10.10;;
35290;SDS011;21411;50.024;19.220;2023-07-13T03:19:53;10.80;;;9.70;;
35290;SDS011;21411;50.024;19.220;2023-07-13T03:22:20;12.30;;;11.00;;
35290;SDS011;21411;50.024;19.220;2023-07-13T03:24:45;10.20;;;9.20;;
35290;SDS011;21411;50.024;19.220;2023-07-13T03:27:11;10.00;;;9.00;;
35290;SDS011;21411;50.024;19.220;2023-07-13T03:29:37;10.00;;;9.10;;
35290;SDS011;21411;50.024;19.220;2023-07-13T03:32:03;13.10;;;11.60;;
35290;SDS011;21411;50.024;19.220;2023-07-13T03:34:30;13.80;;;12.40;;
35290;SDS011;21411;50.024;19.220;2023-07-13T03:36:56;11.60;;;10.40;;
35290;SDS011;21411;50.024;19.220;2023-07-13T03:39:22;9.90;;;8.90;;
35290;SDS011;21411;50.024;19.220;2023-07-13T03:41:48;9.50;;;8.60;;
35290;SDS011;21411;50.024;19.220;2023-07-13T03:44:15;9.00;;;8.20;;
35290;SDS011;21411;50.024;19.220;2023-07-13T03:46:41;8.20;;;7.40;;
35290;SDS011;21411;50.024;19.220;2023-07-13T03:49:06;8.40;;;7.70;;
35290;SDS011;21411;50.024;19.220;2023-07-13T03:51:32;7.80;;;7.10;;
35290;SDS011;21411;50.024;19.220;2023-07-13T03:53:58;8.80;;;7.00;;
35290;SDS011;21411;50.024;19.220;2023-07-13T03:56:24;8.00;;;6.90;;
35290;SDS011;21411;50.024;19.220;2023-07-13T03:58:50;7.40;;;6.80;;
35290;SDS011;21411;50.024;19.220;2023-07-13T04:01:16;7.90;;;7.10;;
35290;SDS011;21411;50.024;19.220;2023-07-13T04:03:42;7.70;;;6.30;;
35290;SDS011;21411;50.024;19.220;2023-07-13T04:06:13;7.50;;;6.80;;
35290;SDS011;21411;50.024;19.220;2023-07-13T04:08:40;6.90;;;6.30;;
35290;SDS011;21411;50.024;19.220;2023-07-13T04:11:06;7.00;;;6.20;;
35290;SDS011;21411;50.024;19.220;2023-07-13T04:13:32;8.60;;;6.70;;
35290;SDS011;21411;50.024;19.220;2023-07-13T04:15:58;6.90;;;6.30;;
35290;SDS011;21411;50.024;19.220;2023-07-13T04:18:24;7.90;;;7.20;;
35290;SDS011;21411;50.024;19.220;2023-07-13T04:20:50;8.80;;;8.10;;
35290;SDS011;21411;50.024;19.220;2023-07-13T04:23:16;8.50;;;7.60;;
35290;SDS011;21411;50.024;19.220;2023-07-13T04:25:48;7.90;;;7.10;;
35290;SDS011;21411;50.024;19.220;2023-07-13T04:28:17;8.00;;;7.20;;
35290;SDS011;21411;50.024;19.220;2023-07-13T04:30:43;7.00;;;6.40;;
35290;SDS011;21411;50.024;19.220;2023-07-13T04:33:09;8.90;;;8.00;;
35290;SDS011;21411;50.024;19.220;2023-07-13T04:35:35;8.20;;;7.40;;
35290;SDS011;21411;50.024;19.220;2023-07-13T04:38:01;9.40;;;7.90;;
35290;SDS011;21411;50.024;19.220;2023-07-13T04:40:27;8.50;;;7.60;;
35290;SDS011;21411;50.024;19.220;2023-07-13T04:42:53;9.60;;;8.70;;
35290;SDS011;21411;50.024;19.220;2023-07-13T04:45:19;9.60;;;8.70;;
35290;SDS011;21411;50.024;19.220;2023-07-13T04:47:45;10.50;;;9.60;;
35290;SDS011;21411;50.024;19.220;2023-07-13T04:50:12;11.20;;;10.00;;
35290;SDS011;21411;50.024;19.220;2023-07-13T04:52:41;9.60;;;8.70;;
35290;SDS011;21411;50.024;19.220;2023-07-13T04:55:07;10.90;;;9.90;;
35290;SDS011;21411;50.024;19.220;2023-07-13T04:57:33;10.70;;;9.70;;
35290;SDS011;21411;50.024;19.220;2023-07-13T04:59:59;11.70;;;9.30;;
35290;SDS011;21411;50.024;19.220;2023-07-13T05:02:27;11.30;;;9.40;;
35290;SDS011;21411;50.024;19.220;2023-07-13T05:04:54;9.80;;;8.70;;
35290;SDS011;21411;50.024;19.220;2023-07-13T05:07:19;9.50;;;8.50;;
35290;SDS011;21411;50.024;19.220;2023-07-13T05:09:45;9.70;;;8.90;;
35290;SDS011;21411;50.024;19.220;2023-07-13T05:12:11;9.70;;;8.40;;
35290;SDS011;21411;50.024;19.220;2023-07-13T05:14:36;9.30;;;7.60;;
35290;SDS011;21411;50.024;19.220;2023-07-13T05:17:02;8.50;;;7.60;;
35290;SDS011;21411;50.024;19.220;2023-07-13T05:19:28;8.90;;;8.00;;
35290;SDS011;21411;50.024;19.220;2023-07-13T05:21:54;8.70;;;7.90;;
35290;SDS011;21411;50.024;19.220;2023-07-13T05:24:20;9.70;;;8.80;;
35290;SDS011;21411;50.024;19.220;2023-07-13T05:26:45;10.10;;;9.10;;
35290;SDS011;21411;50.024;19.220;2023-07-13T05:29:11;10.70;;;9.30;;
35290;SDS011;21411;50.024;19.220;2023-07-13T05:31:37;9.80;;;9.00;;
35290;SDS011;21411;50.024;19.220;2023-07-13T05:34:03;9.30;;;8.50;;
35290;SDS011;21411;50.024;19.220;2023-07-13T05:36:28;9.40;;;8.60;;
35290;SDS011;21411;50.024;19.220;2023-07-13T05:38:54;10.30;;;9.30;;
35290;SDS011;21411;50.024;19.220;2023-07-13T05:41:20;9.50;;;8.70;;
35290;SDS011;21411;50.024;19.220;2023-07-13T05:43:45;9.00;;;8.20;;
35290;SDS011;21411;50.024;19.220;2023-07-13T05:46:11;9.70;;;8.30;;
35290;SDS011;21411;50.024;19.220;2023-07-13T05:48:37;9.60;;;8.70;;
35290;SDS011;21411;50.024;19.220;2023-07-13T05:51:02;9.20;;;8.30;;
35290;SDS011;21411;50.024;19.220;2023-07-13T05:53:28;8.10;;;7.40;;
35290;SDS011;21411;50.024;19.220;2023-07-13T05:55:54;7.60;;;7.10;;
35290;SDS011;21411;50.024;19.220;2023-07-13T05:58:20;7.80;;;7.20;;
35290;SDS011;21411;50.024;19.220;2023-07-13T06:00:46;8.40;;;7.60;;
35290;SDS011;21411;50.024;19.220;2023-07-13T06:03:13;8.70;;;7.90;;
35290;SDS011;21411;50.024;19.220;2023-07-13T06:05:38;7.80;;;6.60;;
35290;SDS011;21411;50.024;19.220;2023-07-13T06:08:05;7.30;;;6.70;;
35290;SDS011;21411;50.024;19.220;2023-07-13T06:10:34;8.20;;;7.50;;
35290;SDS011;21411;50.024;19.220;2023-07-13T06:13:01;7.90;;;7.10;;
35290;SDS011;21411;50.024;19.220;2023-07-13T06:15:26;8.60;;;7.90;;
35290;SDS011;21411;50.024;19.220;2023-07-13T06:17:52;8.10;;;7.30;;
35290;SDS011;21411;50.024;19.220;2023-07-13T06:20:18;8.20;;;7.60;;
35290;SDS011;21411;50.024;19.220;2023-07-13T06:22:43;8.60;;;7.80;;
35290;SDS011;21411;50.024;19.220;2023-07-13T06:25:09;7.90;;;7.20;;
35290;SDS011;21411;50.024;19.220;2023-07-13T06:27:35;7.80;;;7.00;;
35290;SDS011;21411;50.024;19.220;2023-07-13T06:30:01;8.00;;;7.30;;
35290;SDS011;21411;50.024;19.220;2023-07-13T06:32:27;9.40;;;8.50;;
35290;SDS011;21411;50.024;19.220;2023-07-13T06:34:52;8.40;;;7.70;;
35290;SDS011;21411;50.024;19.220;2023-07-13T06:37:18;8.50;;;7.80;;
35290;SDS011;21411;50.024;19.220;2023-07-13T06:39:44;7.90;;;7.10;;
35290;SDS011;21411;50.024;19.220;2023-07-13T06:42:09;8.60;;;7.80;;
35290;SDS011;21411;50.024;19.220;2023-07-13T06:44:35;9.10;;;8.20;;
35290;SDS011;21411;50.024;19.220;2023-07-13T06:47:01;7.60;;;7.00;;
35290;SDS011;21411;50.024;19.220;2023-07-13T06:49:27;8.20;;;7.40;;
35290;SDS011;21411;50.024;19.220;2023-07-13T06:51:52;7.40;;;6.80;;
35290;SDS011;21411;50.024;19.220;2023-07-13T06:54:18;7.40;;;6.80;;
35290;SDS011;21411;50.024;19.220;2023-07-13T06:56:44;7.50;;;6.80;;
35290;SDS011;21411;50.024;19.220;2023-07-13T06:59:09;6.80;;;6.10;;
35290;SDS011;21411;50.024;19.220;2023-07-13T07:01:35;8.20;;;6.30;;
35290;SDS011;21411;50.024;19.220;2023-07-13T07:04:01;6.80;;;6.20;;
35290;SDS011;21411;50.024;19.220;2023-07-13T07:06:26;7.50;;;6.50;;
35290;SDS011;21411;50.024;19.220;2023-07-13T07:08:53;8.30;;;7.50;;
35290;SDS011;21411;50.024;19.220;2023-07-13T07:11:22;7.80;;;6.00;;
35290;SDS011;21411;50.024;19.220;2023-07-13T07:13:49;7.60;;;6.20;;
35290;SDS011;21411;50.024;19.220;2023-07-13T07:16:15;6.00;;;5.50;;
35290;SDS011;21411;50.024;19.220;2023-07-13T07:18:41;7.00;;;6.30;;
35290;SDS011;21411;50.024;19.220;2023-07-13T07:21:06;6.60;;;6.00;;
35290;SDS011;21411;50.024;19.220;2023-07-13T07:23:32;7.00;;;6.30;;
35290;SDS011;21411;50.024;19.220;2023-07-13T07:25:58;7.30;;;6.60;;
35290;SDS011;21411;50.024;19.220;2023-07-13T07:28:24;6.60;;;6.00;;
35290;SDS011;21411;50.024;19.220;2023-07-13T07:30:52;7.80;;;6.20;;
35290;SDS011;21411;50.024;19.220;2023-07-13T07:33:18;7.30;;;6.60;;
35290;SDS011;21411;50.024;19.220;2023-07-13T07:35:44;8.30;;;7.40;;
35290;SDS011;21411;50.024;19.220;2023-07-13T07:38:10;11.20;;;6.90;;
35290;SDS011;21411;50.024;19.220;2023-07-13T07:40:36;7.10;;;6.50;;
35290;SDS011;21411;50.024;19.220;2023-07-13T07:43:02;8.00;;;7.20;;
35290;SDS011;21411;50.024;19.220;2023-07-13T07:45:28;7.10;;;6.40;;
35290;SDS011;21411;50.024;19.220;2023-07-13T07:47:54;6.90;;;6.30;;
35290;SDS011;21411;50.024;19.220;2023-07-13T07:50:24;6.60;;;6.00;;
35290;SDS011;21411;50.024;19.220;2023-07-13T07:53:00;6.80;;;6.20;;
35290;SDS011;21411;50.024;19.220;2023-07-13T07:55:27;6.20;;;5.60;;
35290;SDS011;21411;50.024;19.220;2023-07-13T07:57:53;6.40;;;5.80;;
35290;SDS011;21411;50.024;19.220;2023-07-13T08:00:20;6.50;;;5.30;;
35290;SDS011;21411;50.024;19.220;2023-07-13T08:02:45;6.90;;;5.70;;
35290;SDS011;21411;50.024;19.220;2023-07-13T08:05:11;6.90;;;6.10;;
35290;SDS011;21411;50.024;19.220;2023-07-13T08:07:37;7.30;;;6.20;;
35290;SDS011;21411;50.024;19.220;2023-07-13T08:10:04;10.60;;;6.40;;
35290;SDS011;21411;50.024;19.220;2023-07-13T08:12:33;8.30;;;6.50;;
35290;SDS011;21411;50.024;19.220;2023-07-13T08:14:59;8.40;;;6.00;;
35290;SDS011;21411;50.024;19.220;2023-07-13T08:17:26;6.80;;;6.00;;
35290;SDS011;21411;50.024;19.220;2023-07-13T08:19:52;5.90;;;4.90;;
35290;SDS011;21411;50.024;19.220;2023-07-13T08:22:18;8.50;;;5.20;;
35290;SDS011;21411;50.024;19.220;2023-07-13T08:24:43;6.80;;;5.60;;
35290;SDS011;21411;50.024;19.220;2023-07-13T08:27:12;11.40;;;6.70;;
35290;SDS011;21411;50.024;19.220;2023-07-13T08:29:38;6.50;;;5.40;;
35290;SDS011;21411;50.024;19.220;2023-07-13T08:32:05;7.10;;;5.40;;
35290;SDS011;21411;50.024;19.220;2023-07-13T08:34:31;5.60;;;5.00;;
35290;SDS011;21411;50.024;19.220;2023-07-13T08:36:57;6.30;;;5.50;;
35290;SDS011;21411;50.024;19.220;2023-07-13T08:39:23;5.60;;;5.10;;
35290;SDS011;21411;50.024;19.220;2023-07-13T08:41:50;6.20;;;5.40;;
35290;SDS011;21411;50.024;19.220;2023-07-13T08:44:20;6.90;;;5.50;;
35290;SDS011;21411;50.024;19.220;2023-07-13T08:46:47;6.80;;;6.10;;
35290;SDS011;21411;50.024;19.220;2023-07-13T08:49:16;6.30;;;5.60;;
35290;SDS011;21411;50.024;19.220;2023-07-13T08:54:11;7.70;;;6.10;;
35290;SDS011;21411;50.024;19.220;2023-07-13T08:56:37;6.80;;;5.70;;
35290;SDS011;21411;50.024;19.220;2023-07-13T08:59:11;10.40;;;6.30;;
35290;SDS011;21411;50.024;19.220;2023-07-13T09:04:28;7.40;;;6.30;;
35290;SDS011;21411;50.024;19.220;2023-07-13T09:09:32;12.00;;;6.90;;
35290;SDS011;21411;50.024;19.220;2023-07-13T09:14:45;9.20;;;7.60;;
35290;SDS011;21411;50.024;19.220;2023-07-13T09:17:14;9.60;;;7.90;;
35290;SDS011;21411;50.024;19.220;2023-07-13T09:19:41;9.30;;;7.30;;
35290;SDS011;21411;50.024;19.220;2023-07-13T09:22:09;12.70;;;7.30;;
35290;SDS011;21411;50.024;19.220;2023-07-13T09:27:02;9.90;;;8.50;;
35290;SDS011;21411;50.024;19.220;2023-07-13T09:29:30;11.60;;;8.60;;
35290;SDS011;21411;50.024;19.220;2023-07-13T09:31:58;8.60;;;7.60;;
35290;SDS011;21411;50.024;19.220;2023-07-13T09:34:26;9.10;;;8.20;;
35290;SDS011;21411;50.024;19.220;2023-07-13T09:36:51;9.40;;;7.50;;
35290;SDS011;21411;50.024;19.220;2023-07-13T09:39:24;8.30;;;7.40;;
35290;SDS011;21411;50.024;19.220;2023-07-13T09:44:35;9.10;;;8.20;;
35290;SDS011;21411;50.024;19.220;2023-07-13T09:47:02;9.80;;;8.30;;
35290;SDS011;21411;50.024;19.220;2023-07-13T09:49:35;9.70;;;8.30;;
35290;SDS011;21411;50.024;19.220;2023-07-13T09:52:02;10.30;;;8.30;;
35290;SDS011;21411;50.024;19.220;2023-07-13T09:54:28;12.00;;;8.90;;
35290;SDS011;21411;50.024;19.220;2023-07-13T09:56:55;9.80;;;8.50;;
35290;SDS011;21411;50.024;19.220;2023-07-13T09:59:23;12.00;;;9.60;;
35290;SDS011;21411;50.024;19.220;2023-07-13T10:01:49;10.40;;;9.30;;
35290;SDS011;21411;50.024;19.220;2023-07-13T10:04:18;14.50;;;10.60;;
35290;SDS011;21411;50.024;19.220;2023-07-13T10:06:45;14.90;;;12.40;;
35290;SDS011;21411;50.024;19.220;2023-07-13T10:09:15;13.60;;;12.20;;
35290;SDS011;21411;50.024;19.220;2023-07-13T10:11:40;12.70;;;10.70;;
35290;SDS011;21411;50.024;19.220;2023-07-13T10:14:12;12.20;;;9.60;;
35290;SDS011;21411;50.024;19.220;2023-07-13T10:16:38;11.10;;;9.50;;
35290;SDS011;21411;50.024;19.220;2023-07-13T10:19:06;13.60;;;11.20;;
35290;SDS011;21411;50.024;19.220;2023-07-13T10:21:38;12.60;;;9.40;;
35290;SDS011;21411;50.024;19.220;2023-07-13T10:26:31;9.30;;;7.80;;
35290;SDS011;21411;50.024;19.220;2023-07-13T10:28:59;11.90;;;9.50;;
35290;SDS011;21411;50.024;19.220;2023-07-13T10:31:27;9.60;;;8.70;;
35290;SDS011;21411;50.024;19.220;2023-07-13T10:33:52;10.00;;;8.80;;
35290;SDS011;21411;50.024;19.220;2023-07-13T10:36:35;13.10;;;8.90;;
35290;SDS011;21411;50.024;19.220;2023-07-13T10:39:04;11.20;;;8.70;;
35290;SDS011;21411;50.024;19.220;2023-07-13T10:41:32;10.40;;;8.30;;
